Stations météo

réclame
Mon MeteoGroup
Otranto, Italie (16334): Température de l'air & dewpoint: 13.11.2017 20:00:00 - 19.11.2017 20:00:00 (CET)Otranto, Italie (16334): Vitesse du vent: 13.11.2017 20:00:00 - 19.11.2017 20:00:00 (CET)Otranto, Italie (16334): Direction du vent: 13.11.2017 20:00:00 - 19.11.2017 20:00:00 (CET)Otranto, Italie (16334): reduced air pressure: 13.11.2017 20:00:00 - 19.11.2017 20:00:00 (CET)Otranto, Italie (16334): Quantités de précipitations: 13.11.2017 20:00:00 - 19.11.2017 20:00:00 (CET)
Date & Time tt [°C] td [°C] ff [km/h] ff [knt] dd ppp [hPa] rr [mm]
19.11.2017 20:00:00 12,1 12,1 4 2 W 1011,8 -
19.11.2017 19:00:00 12,4 11,5 4 2 W 1011,5 0,0
19.11.2017 18:00:00 12,9 11,9 2 1 WNW 1011,1 -
19.11.2017 17:00:00 13,6 12,6 5 3 NNW 1011,3 -
19.11.2017 16:00:00 14,0 13,0 5 3 NNW 1011,3 -
19.11.2017 15:00:00 15,0 14,0 9 5 N 1011,2 -
19.11.2017 14:00:00 16,5 14,4 9 5 WSW 1011,2 -
19.11.2017 13:00:00 15,1 13,4 9 5 WNW 1011,4 0,0
19.11.2017 12:00:00 16,0 15,1 9 5 NNW 1011,8 -
19.11.2017 11:00:00 15,1 14,1 9 5 NW 1012,4 -
19.11.2017 10:00:00 14,3 14,2 15 8 NW 1012,8 -
19.11.2017 09:00:00 13,0 12,9 15 8 NNW 1012,7 -
19.11.2017 08:00:00 11,3 11,3 13 7 NNW 1012,7 -
19.11.2017 07:00:00 10,9 10,9 13 7 NW 1012,2 0,0
19.11.2017 06:00:00 11,3 11,3 15 8 NNW 1011,8 -
19.11.2017 05:00:00 11,9 11,9 15 8 N 1011,6 -
19.11.2017 04:00:00 12,6 12,6 16 9 N 1011,5 -
19.11.2017 03:00:00 13,2 13,1 16 9 NNW 1011,6 -
19.11.2017 02:00:00 13,5 13,4 18 10 NNW 1011,9 -
19.11.2017 01:00:00 13,9 12,9 18 10 NNW 1012,0 0,0
19.11.2017 00:00:00 14,1 13,1 21 11 NNW 1012,1 -
18.11.2017 23:00:00 13,8 12,8 21 11 N 1011,9 -
18.11.2017 22:00:00 13,7 13,6 21 11 NNW 1011,8 -
18.11.2017 21:00:00 13,9 13,8 21 11 NNW 1011,8 -
18.11.2017 20:00:00 14,0 13,9 22 12 NNW 1011,3 -
18.11.2017 19:00:00 14,3 14,2 22 12 N 1010,9 -
18.11.2017 18:00:00 14,3 14,2 22 12 NNW 1010,8 -
18.11.2017 17:00:00 14,5 14,4 24 13 NNW 1010,3 -
18.11.2017 16:00:00 14,8 14,7 24 13 NNW 1011,9 -
18.11.2017 15:00:00 14,3 14,2 21 11 NNW 1011,8 -
18.11.2017 14:00:00 14,5 14,4 21 11 NNW 1011,7 -
18.11.2017 13:00:00 14,3 14,2 18 10 N 1011,2 -
18.11.2017 12:00:00 14,7 14,6 13 7 NNE 1010,9 -
18.11.2017 11:00:00 15,0 14,9 16 9 NE 1010,5 -
18.11.2017 10:00:00 14,5 14,4 18 10 NE 1010,0 -
18.11.2017 09:00:00 14,2 14,1 18 10 NE 1009,5 -
18.11.2017 08:00:00 14,5 14,4 21 11 NNE 1008,9 -
18.11.2017 07:00:00 14,8 14,7 21 11 NNE 1008,1 -
18.11.2017 06:00:00 14,5 14,4 26 14 NNE 1007,8 -
18.11.2017 05:00:00 14,2 14,1 18 10 NE 1008,0 -
18.11.2017 04:00:00 14,4 14,3 24 13 ENE 1007,9 -
18.11.2017 03:00:00 15,7 15,6 29 16 ESE 1007,7 -
18.11.2017 02:00:00 14,3 14,2 22 12 NE 1008,0 -
18.11.2017 01:00:00 14,1 14,0 24 13 NE 1008,2 -
18.11.2017 00:00:00 14,2 14,1 22 12 ENE 1008,7 -
17.11.2017 23:00:00 13,9 13,8 24 13 NNE 1008,7 -
17.11.2017 22:00:00 14,5 14,4 21 11 NE 1009,0 -
17.11.2017 21:00:00 14,8 14,7 18 10 E 1009,0 -
17.11.2017 20:00:00 14,8 14,7 26 14 NE 1008,8 -
17.11.2017 19:00:00 14,8 14,7 28 15 NE 1008,7 -
17.11.2017 18:00:00 14,5 14,4 28 15 NE 1008,4 -
17.11.2017 17:00:00 14,5 14,4 28 15 N 1008,3 -
17.11.2017 16:00:00 13,9 13,8 24 13 NE 1008,8 -
17.11.2017 15:00:00 14,3 14,2 22 12 NNE 1009,0 -
17.11.2017 14:00:00 14,4 14,3 18 10 E 1008,8 -
17.11.2017 13:00:00 14,4 14,3 28 15 E 1009,0 -
17.11.2017 12:00:00 14,1 14,0 22 12 ENE 1009,3 -
17.11.2017 11:00:00 13,9 13,8 28 15 ESE 1009,9 -
17.11.2017 10:00:00 15,3 14,3 42 23 ESE 1009,3 -
17.11.2017 09:00:00 15,3 14,3 42 23 ESE 1009,3 -
17.11.2017 08:00:00 16,0 14,8 31 17 E 1009,3 -
17.11.2017 07:00:00 16,2 15,0 22 12 ESE 1009,3 -
17.11.2017 06:00:00 16,0 14,8 31 17 ESE 1009,0 -
17.11.2017 05:00:00 16,0 14,8 24 13 E 1008,7 -
17.11.2017 04:00:00 15,7 14,5 29 16 E 1008,8 -
17.11.2017 03:00:00 15,2 15,1 18 10 E 1009,0 -
17.11.2017 02:00:00 13,0 12,9 5 3 NNW 1009,6 -
17.11.2017 01:00:00 12,8 12,8 4 2 SW 1010,0 -
17.11.2017 00:00:00 15,6 15,5 21 11 S 1011,0 -
16.11.2017 23:00:00 16,1 16,0 18 10 NNE 1010,3 -
16.11.2017 22:00:00 16,3 16,2 13 7 E 1010,8 -
16.11.2017 21:00:00 16,0 15,9 8 4 E 1011,1 -
16.11.2017 20:00:00 15,1 15,0 9 5 NE 1011,2 -
16.11.2017 19:00:00 14,3 14,2 5 3 NE 1011,6 -
16.11.2017 18:00:00 13,7 13,6 4 2 SE 1011,6 -
16.11.2017 17:00:00 13,6 13,5 11 6 SSW 1011,8 -
16.11.2017 16:00:00 13,6 13,5 16 9 S 1012,2 -
16.11.2017 15:00:00 14,4 14,3 26 14 S 1012,1 -
16.11.2017 14:00:00 15,7 15,6 15 8 SE 1011,4 -
16.11.2017 13:00:00 15,0 14,9 22 12 SE 1012,0 -
16.11.2017 12:00:00 16,7 15,5 21 11 ESE 1012,3 -
16.11.2017 11:00:00 16,6 15,4 21 11 ESE 1012,5 -
16.11.2017 10:00:00 15,2 15,1 22 12 SSE 1012,3 -
16.11.2017 09:00:00 15,2 15,1 21 11 SE 1011,7 -
16.11.2017 08:00:00 13,5 13,4 24 13 SE 1011,7 -
16.11.2017 07:00:00 12,7 12,7 8 4 ESE 1011,4 -
16.11.2017 06:00:00 14,1 14,0 18 10 ESE 1010,9 -
16.11.2017 05:00:00 12,4 12,4 13 7 ESE 1010,2 -
16.11.2017 04:00:00 12,6 12,6 4 2 NNE 1010,3 -
16.11.2017 03:00:00 15,7 15,6 29 16 SE 1009,8 -
16.11.2017 02:00:00 15,3 15,2 28 15 E 1010,7 -
16.11.2017 01:00:00 14,0 13,9 15 8 NNE 1011,8 -
16.11.2017 00:00:00 13,4 13,3 11 6 NNE 1012,7 -
15.11.2017 23:00:00 13,2 13,1 9 5 NE 1013,2 -
15.11.2017 22:00:00 13,8 13,7 13 7 ENE 1013,5 -
15.11.2017 21:00:00 14,3 14,2 5 3 NNE 1013,2 -
15.11.2017 20:00:00 14,1 14,0 2 1 N 1013,6 -
15.11.2017 19:00:00 14,2 14,1 4 2 ESE 1014,1 -
15.11.2017 18:00:00 14,5 13,5 11 6 S 1014,0 -
15.11.2017 17:00:00 15,3 15,2 9 5 SE 1013,5 -
15.11.2017 16:00:00 15,7 15,6 11 6 E 1013,3 -
15.11.2017 15:00:00 16,4 16,3 15 8 SSE 1013,0 -
15.11.2017 14:00:00 17,5 17,4 15 8 SE 1013,1 -
15.11.2017 13:00:00 17,3 16,4 16 9 SE 1013,2 0,0
15.11.2017 12:00:00 17,3 17,2 22 12 ESE 1013,4 -
15.11.2017 11:00:00 16,1 16,0 16 9 SE 1013,6 -
15.11.2017 10:00:00 16,7 15,5 21 11 SSE 1013,3 -
15.11.2017 09:00:00 15,0 14,9 15 8 ESE 1012,9 -
15.11.2017 08:00:00 14,6 14,5 11 6 SE 1011,9 -
15.11.2017 07:00:00 13,9 13,8 18 10 SE 1011,7 -
15.11.2017 06:00:00 14,5 14,4 26 14 SSE 1010,2 -
15.11.2017 05:00:00 13,5 13,4 15 8 SE 1009,5 -
15.11.2017 04:00:00 13,8 13,7 26 14 SE 1008,7 -
15.11.2017 03:00:00 14,8 14,7 24 13 SSE 1008,5 -
15.11.2017 02:00:00 15,0 14,9 41 22 S 1007,6 -
15.11.2017 01:00:00 16,5 16,4 31 17 SE 1006,8 -
15.11.2017 00:00:00 16,0 15,9 29 16 SSE 1007,3 -
14.11.2017 23:00:00 15,5 15,4 34 18 SE 1007,3 -
14.11.2017 22:00:00 16,0 15,9 31 17 SE 1006,8 -
14.11.2017 21:00:00 15,7 15,6 35 19 SE 1006,5 -
14.11.2017 20:00:00 15,3 15,2 13 7 SSE 1007,0 -
14.11.2017 19:00:00 15,1 15,0 13 7 SE 1006,6 -
14.11.2017 18:00:00 15,0 14,9 18 10 SE 1006,1 -
14.11.2017 17:00:00 14,6 14,5 21 11 S 1005,4 -
14.11.2017 16:00:00 14,0 13,9 8 4 SSW 1005,9 -
14.11.2017 15:00:00 14,1 14,0 16 9 WSW 1004,9 -
14.11.2017 14:00:00 16,8 16,7 34 18 SE 1003,9 -
14.11.2017 13:00:00 16,6 16,5 29 16 SE 1004,1 -
14.11.2017 12:00:00 14,2 14,1 8 4 E 1005,0 -
14.11.2017 11:00:00 13,7 13,6 8 4 ESE 1005,6 -
14.11.2017 10:00:00 15,0 14,9 21 11 S 1005,5 -
14.11.2017 09:00:00 15,0 14,9 21 11 S 1005,5 -
14.11.2017 08:00:00 15,6 15,5 29 16 ESE 1004,4 -
14.11.2017 07:00:00 16,0 15,9 15 8 SSE 1004,0 -
14.11.2017 06:00:00 14,6 14,5 5 3 ENE 1003,9 -
14.11.2017 05:00:00 13,9 13,8 5 3 NE 1003,7 -
14.11.2017 04:00:00 13,2 13,1 5 3 NNW 1003,8 -
14.11.2017 03:00:00 13,4 13,3 5 3 WNW 1003,4 -
14.11.2017 02:00:00 13,7 13,6 8 4 WNW 1003,5 -
14.11.2017 01:00:00 14,6 14,5 5 3 W 1002,9 -
14.11.2017 00:00:00 15,4 15,3 5 3 W 1002,8 -
13.11.2017 23:00:00 16,7 16,6 21 11 SSW 1002,0 -
13.11.2017 22:00:00 17,1 17,0 16 9 SSE 1001,3 -
13.11.2017 21:00:00 16,4 16,3 21 11 SSE 1001,5 -
13.11.2017 20:00:00 16,4 16,3 26 14 SSE 1001,3 -

tt = Température de l'air
td = dewpoint
ff = Vitesse du vent
dd = Direction du vent
ppp = reduced air pressure
rr = Quantités de précipitations

stations d'obs. à proximité